createdAt,value
2018-07-24T00:00:15.275Z,73.55
2018-07-24T00:01:15.275Z,73.46
2018-07-24T00:02:15.279Z,73.74
2018-07-24T00:03:15.287Z,73.65
2018-07-24T00:04:15.290Z,73.94
2018-07-24T00:05:15.286Z,74.13
2018-07-24T00:06:15.288Z,73.36
2018-07-24T00:07:15.293Z,74.03
2018-07-24T00:08:15.300Z,73.84
2018-07-24T00:09:15.298Z,73.65
2018-07-24T00:10:15.337Z,73.74
2018-07-24T00:11:15.306Z,73.84
2018-07-24T00:12:15.310Z,73.84
2018-07-24T00:13:15.312Z,73.84
2018-07-24T00:14:15.313Z,73.94
2018-07-24T00:15:15.326Z,74.67
2018-07-24T00:16:15.321Z,74.19
2018-07-24T00:17:15.322Z,74.38
2018-07-24T00:18:15.324Z,74.48
2018-07-24T00:19:15.327Z,74.48
2018-07-24T00:20:15.331Z,74.67
2018-07-24T00:21:15.331Z,75.05
2018-07-24T00:22:15.338Z,74.76
2018-07-24T00:23:15.339Z,74.76
2018-07-24T00:24:15.342Z,74.96
2018-07-24T00:25:15.345Z,75.34
2018-07-24T00:26:15.349Z,74.76
2018-07-24T00:27:15.348Z,74.48
2018-07-24T00:28:15.351Z,74.57
2018-07-24T00:29:15.354Z,75.15
2018-07-24T00:30:15.361Z,75.24
2018-07-24T00:31:15.361Z,75.24
2018-07-24T00:32:15.431Z,75.24
2018-07-24T00:33:15.367Z,75.24
2018-07-24T00:34:15.368Z,75.82
2018-07-24T00:35:15.372Z,75.15
2018-07-24T00:36:15.373Z,75.73
2018-07-24T00:37:15.375Z,75.73
2018-07-24T00:38:15.377Z,75.63
2018-07-24T00:39:15.380Z,75.73
2018-07-24T00:40:15.386Z,75.54
2018-07-24T00:41:15.405Z,76.01
2018-07-24T00:42:15.391Z,76.11
2018-07-24T00:43:15.400Z,75.69
2018-07-24T00:44:15.398Z,75.98
2018-07-24T00:45:15.396Z,76.26
2018-07-24T00:46:15.399Z,75.88
2018-07-24T00:47:15.404Z,75.79
2018-07-24T00:48:15.403Z,76.17
2018-07-24T00:49:15.412Z,76.75
2018-07-24T00:50:15.420Z,76.75
2018-07-24T00:51:15.413Z,76.94
2018-07-24T00:52:15.417Z,76.84
2018-07-24T00:53:15.415Z,76.26
2018-07-24T00:54:15.447Z,76.84
2018-07-24T00:55:15.420Z,77.13
2018-07-24T00:56:15.424Z,76.84
2018-07-24T00:57:15.429Z,77.13
2018-07-24T00:58:15.427Z,77.04
2018-07-24T00:59:15.429Z,76.84
2018-07-24T01:00:15.438Z,77.33
2018-07-24T01:01:15.435Z,77.13
2018-07-24T01:02:15.440Z,77.42
2018-07-24T01:03:15.439Z,77.42
2018-07-24T01:04:15.443Z,77.61
2018-07-24T01:05:15.445Z,76.94
2018-07-24T01:06:15.446Z,76.94
2018-07-24T01:07:15.450Z,77.42
2018-07-24T01:08:15.462Z,78.19
2018-07-24T01:09:15.454Z,78.06
2018-07-24T01:10:15.460Z,77.42
2018-07-24T01:11:15.462Z,78.09
2018-07-24T01:12:15.461Z,77.96
2018-07-24T01:13:15.463Z,77.86
2018-07-24T01:14:15.464Z,77.67
2018-07-24T01:15:15.473Z,77.86
2018-07-24T01:16:15.470Z,77.48
2018-07-24T01:17:15.471Z,78.06
2018-07-24T01:18:15.473Z,78.06
2018-07-24T01:19:15.479Z,78.34
2018-07-24T01:20:15.482Z,78.44
2018-07-24T01:21:15.480Z,78.25
2018-07-24T01:22:15.482Z,78.25
2018-07-24T01:23:15.485Z,78.15
2018-07-24T01:24:15.517Z,78.15
2018-07-24T01:25:15.488Z,78.25
2018-07-24T01:26:15.494Z,78.53
2018-07-24T01:27:15.502Z,78.25
2018-07-24T01:28:15.496Z,78.25
2018-07-24T01:29:15.511Z,78.53
2018-07-24T01:30:15.498Z,78.92
2018-07-24T01:31:15.501Z,79.21
2018-07-24T01:32:15.507Z,78.92
2018-07-24T01:33:15.506Z,78.73
2018-07-24T01:34:15.508Z,78.63
2018-07-24T01:35:15.513Z,78.73
2018-07-24T01:36:15.515Z,78.63
2018-07-24T01:37:15.516Z,79.02
2018-07-24T01:38:15.518Z,79.02
2018-07-24T01:39:15.518Z,79.21
2018-07-24T01:40:15.521Z,79.21
2018-07-24T01:41:15.536Z,79.21
2018-07-24T01:42:15.525Z,79.69
2018-07-24T01:43:15.527Z,79.02
2018-07-24T01:44:15.533Z,79.60
2018-07-24T01:45:15.541Z,79.11
2018-07-24T01:46:15.541Z,79.21
2018-07-24T01:47:15.537Z,79.40
2018-07-24T01:48:15.538Z,79.02
2018-07-24T01:49:15.562Z,79.21
2018-07-24T01:50:15.541Z,79.65
2018-07-24T01:51:15.544Z,79.65
2018-07-24T01:52:15.551Z,79.55
2018-07-24T01:53:15.548Z,79.84
2018-07-24T01:54:15.550Z,79.94
2018-07-24T01:55:15.552Z,79.55
2018-07-24T01:56:15.554Z,79.65
2018-07-24T01:57:15.558Z,79.94
2018-07-24T01:58:15.557Z,79.84
2018-07-24T01:59:15.559Z,80.22
2018-07-24T02:00:15.562Z,80.13
2018-07-24T02:01:15.562Z,80.13
2018-07-24T02:02:15.565Z,80.13
2018-07-24T02:03:15.571Z,79.94
2018-07-24T02:04:15.572Z,80.04
2018-07-24T02:05:15.580Z,80.32
2018-07-24T02:06:15.573Z,80.13
2018-07-24T02:07:15.575Z,79.94
2018-07-24T02:08:15.578Z,79.94
2018-07-24T02:09:15.581Z,80.51
2018-07-24T02:10:15.581Z,80.80
2018-07-24T02:11:15.582Z,80.71
2018-07-24T02:12:15.592Z,80.42
2018-07-24T02:13:15.586Z,80.51
2018-07-24T02:14:15.588Z,80.61
2018-07-24T02:15:15.591Z,80.80
2018-07-24T02:16:15.593Z,80.61
2018-07-24T02:17:15.595Z,80.61
2018-07-24T02:18:15.594Z,80.61
2018-07-24T02:19:15.597Z,80.71
2018-07-24T02:20:15.599Z,80.71
2018-07-24T02:21:15.603Z,80.71
2018-07-24T02:22:15.602Z,80.57
2018-07-24T02:23:15.606Z,80.32
2018-07-24T02:24:15.606Z,80.61
2018-07-24T02:25:15.609Z,80.32
2018-07-24T02:26:15.610Z,80.61
2018-07-24T02:27:15.612Z,80.51
2018-07-24T02:28:15.613Z,80.61
2018-07-24T02:29:15.615Z,80.47
2018-07-24T02:30:15.617Z,80.61
2018-07-24T02:31:15.621Z,80.80
2018-07-24T02:32:15.653Z,80.42
2018-07-24T02:33:15.630Z,81.19
2018-07-24T02:34:15.637Z,80.99
2018-07-24T02:35:15.625Z,81.09
2018-07-24T02:36:15.630Z,81.28
2018-07-24T02:37:15.641Z,80.32
2018-07-24T02:38:15.637Z,81.19
2018-07-24T02:39:15.634Z,80.61
2018-07-24T02:40:15.637Z,80.71
2018-07-24T02:41:15.638Z,81.34
2018-07-24T02:42:15.641Z,81.38
2018-07-24T02:43:15.641Z,81.05
2018-07-24T02:44:15.643Z,81.15
2018-07-24T02:45:15.647Z,81.24
2018-07-24T02:46:15.646Z,81.05
2018-07-24T02:47:15.650Z,81.43
2018-07-24T02:48:15.650Z,81.15
2018-07-24T02:49:15.651Z,81.63
2018-07-24T02:50:15.655Z,81.43
2018-07-24T02:51:15.655Z,81.43
2018-07-24T02:52:15.660Z,81.43
2018-07-24T02:53:15.657Z,81.53
2018-07-24T02:54:15.662Z,81.53
2018-07-24T02:55:15.661Z,81.34
2018-07-24T02:56:15.663Z,81.53
2018-07-24T02:57:15.676Z,81.15
2018-07-24T02:58:15.669Z,81.34
2018-07-24T02:59:15.668Z,81.72
2018-07-24T03:00:15.669Z,81.72
2018-07-24T03:01:15.673Z,81.72
2018-07-24T03:02:15.673Z,82.30
2018-07-24T03:03:15.675Z,81.53
2018-07-24T03:04:15.676Z,81.82
2018-07-24T03:05:15.678Z,82.40
2018-07-24T03:06:15.679Z,81.82
2018-07-24T03:07:15.683Z,81.92
2018-07-24T03:08:15.693Z,82.01
2018-07-24T03:09:15.683Z,82.01
2018-07-24T03:10:15.694Z,81.92
2018-07-24T03:11:15.690Z,82.10
2018-07-24T03:12:15.692Z,82.78
2018-07-24T03:13:15.691Z,82.01
2018-07-24T03:14:15.695Z,81.92
2018-07-24T03:15:15.696Z,81.92
2018-07-24T03:16:15.750Z,82.49
2018-07-24T03:17:15.696Z,82.40
2018-07-24T03:18:36.708Z,82.10
2018-07-24T03:19:15.701Z,82.49
2018-07-24T03:20:15.702Z,82.68
2018-07-24T03:21:15.704Z,82.30
2018-07-24T03:22:15.713Z,82.01
2018-07-24T03:23:15.708Z,82.68
2018-07-24T03:24:15.713Z,82.87
2018-07-24T03:25:15.712Z,82.68
2018-07-24T03:26:15.712Z,82.78
2018-07-24T03:27:15.712Z,82.68
2018-07-24T03:28:15.717Z,82.64
2018-07-24T03:29:15.717Z,82.54
2018-07-24T03:30:15.718Z,82.54
2018-07-24T03:31:15.720Z,82.45
2018-07-24T03:32:15.723Z,82.68
2018-07-24T03:33:15.724Z,83.12
2018-07-24T03:34:15.725Z,83.16
2018-07-24T03:35:15.763Z,82.78
2018-07-24T03:36:15.727Z,82.59
2018-07-24T03:37:15.727Z,82.87
2018-07-24T03:38:15.729Z,82.78
2018-07-24T03:39:15.733Z,82.97
2018-07-24T03:40:15.733Z,82.68
2018-07-24T03:41:15.735Z,82.49
2018-07-24T03:42:15.735Z,82.78
2018-07-24T03:43:15.741Z,82.59
2018-07-24T03:44:15.739Z,82.87
2018-07-24T03:45:15.743Z,82.01
2018-07-24T03:46:15.743Z,82.30
2018-07-24T03:47:15.744Z,82.01
2018-07-24T03:48:15.744Z,82.59
2018-07-24T03:49:15.746Z,82.30
2018-07-24T03:50:15.749Z,82.10
2018-07-24T03:51:15.756Z,82.01
2018-07-24T03:52:15.751Z,82.20
2018-07-24T03:53:15.755Z,82.01
2018-07-24T03:54:15.754Z,82.01
2018-07-24T03:55:15.756Z,82.10
2018-07-24T03:56:15.757Z,82.49
2018-07-24T03:57:15.761Z,82.01
2018-07-24T03:58:15.767Z,82.97
2018-07-24T03:59:15.762Z,82.01
2018-07-24T04:00:15.764Z,82.68
2018-07-24T04:01:15.808Z,82.78
2018-07-24T04:02:15.798Z,82.68
2018-07-24T04:03:15.769Z,82.68
2018-07-24T04:04:15.771Z,82.59
2018-07-24T04:05:15.770Z,82.68
2018-07-24T04:06:15.775Z,82.64
2018-07-24T04:07:15.775Z,82.78
2018-07-24T04:08:15.778Z,82.49
2018-07-24T04:09:15.780Z,82.59
2018-07-24T04:10:15.784Z,82.78
2018-07-24T04:11:15.780Z,82.87
2018-07-24T04:12:15.783Z,82.87
2018-07-24T04:13:15.782Z,82.87
2018-07-24T04:14:15.828Z,82.10
2018-07-24T04:15:15.792Z,82.10
2018-07-24T04:16:15.789Z,82.01
2018-07-24T04:17:15.788Z,82.30
2018-07-24T04:18:15.789Z,82.30
2018-07-24T04:19:15.801Z,81.92
2018-07-24T04:20:15.794Z,82.01
2018-07-24T04:21:15.893Z,82.20
2018-07-24T04:22:15.830Z,82.68
2018-07-24T04:23:15.800Z,82.40
2018-07-24T04:24:15.803Z,82.20
2018-07-24T04:25:15.802Z,82.20
2018-07-24T04:26:15.802Z,82.01
2018-07-24T04:27:16.489Z,82.10
2018-07-24T04:28:15.979Z,82.01
2018-07-24T04:29:15.811Z,82.87
2018-07-24T04:30:15.814Z,82.78
2018-07-24T04:31:15.811Z,82.78
2018-07-24T04:32:15.815Z,82.20
2018-07-24T04:33:15.816Z,82.68
2018-07-24T04:34:15.818Z,82.01
2018-07-24T04:35:15.818Z,82.10
2018-07-24T04:36:15.821Z,82.40
2018-07-24T04:37:15.820Z,82.49
2018-07-24T04:38:15.822Z,81.92
2018-07-24T04:39:15.823Z,81.63
2018-07-24T04:40:15.848Z,82.01
2018-07-24T04:41:15.903Z,81.82
2018-07-24T04:42:15.830Z,81.86
2018-07-24T04:43:15.830Z,81.76
2018-07-24T04:44:15.832Z,82.24
2018-07-24T04:45:15.837Z,81.57
2018-07-24T04:46:15.834Z,81.86
2018-07-24T04:47:15.835Z,81.76
2018-07-24T04:48:15.840Z,80.99
2018-07-24T04:49:15.840Z,81.38
2018-07-24T04:50:15.840Z,81.48
2018-07-24T04:51:15.843Z,81.09
2018-07-24T04:52:15.845Z,81.38
2018-07-24T04:53:15.845Z,81.04
2018-07-24T04:54:15.848Z,81.04
2018-07-24T04:55:15.849Z,81.32
2018-07-24T04:56:15.854Z,80.75
2018-07-24T04:57:15.852Z,80.55
2018-07-24T04:58:15.855Z,80.27
2018-07-24T04:59:15.857Z,80.60
2018-07-24T05:00:15.861Z,80.17
2018-07-24T05:01:15.905Z,79.53
2018-07-24T05:02:15.862Z,79.63
2018-07-24T05:03:15.872Z,79.63
2018-07-24T05:04:15.870Z,79.73
2018-07-24T05:05:15.867Z,79.73
2018-07-24T05:06:15.870Z,79.15
2018-07-24T05:07:15.872Z,79.35
2018-07-24T05:08:15.875Z,79.05
2018-07-24T05:09:15.887Z,78.90
2018-07-24T05:10:15.932Z,78.81
2018-07-24T05:11:15.882Z,78.52
2018-07-24T05:12:15.885Z,78.23
2018-07-24T05:13:15.886Z,77.59
2018-07-24T05:14:15.887Z,76.28
2018-07-24T05:15:15.931Z,75.80
2018-07-24T05:16:15.893Z,75.42
2018-07-24T05:17:15.926Z,74.78
2018-07-24T05:18:15.902Z,74.14
2018-07-24T05:19:15.899Z,72.99
2018-07-24T05:20:15.902Z,72.99
2018-07-24T05:21:15.914Z,71.73
2018-07-24T05:22:15.911Z,72.34
2018-07-24T05:23:15.910Z,70.90
2018-07-24T05:24:15.914Z,71.03
2018-07-24T05:25:15.916Z,69.20
2018-07-24T05:26:15.919Z,68.36
2018-07-24T05:27:15.922Z,68.91
2018-07-24T05:28:15.925Z,68.62
2018-07-24T05:29:15.928Z,69.39
2018-07-24T05:30:15.932Z,69.39
2018-07-24T05:31:15.934Z,68.26
2018-07-24T05:32:15.999Z,67.78
2018-07-24T05:33:15.991Z,67.49
2018-07-24T05:34:15.946Z,66.46
2018-07-24T05:35:15.949Z,66.43
2018-07-24T05:36:15.954Z,66.63
2018-07-24T05:37:15.955Z,67.40
2018-07-24T05:38:15.961Z,67.75
2018-07-24T05:39:15.966Z,68.62
2018-07-24T05:40:15.969Z,69.35
2018-07-24T05:41:15.974Z,70.13
2018-07-24T05:42:15.975Z,70.42
2018-07-24T05:43:15.981Z,71.06
2018-07-24T05:44:15.987Z,70.96
2018-07-24T05:45:15.989Z,71.73
2018-07-24T05:46:16.001Z,71.06
2018-07-24T05:47:16.005Z,71.44
2018-07-24T05:48:15.998Z,70.96
2018-07-24T05:49:16.001Z,71.28
2018-07-24T05:50:16.008Z,71.06
2018-07-24T05:51:16.009Z,71.06
2018-07-24T05:52:16.014Z,71.44
2018-07-24T05:53:16.018Z,71.73
2018-07-24T05:54:16.020Z,71.54
2018-07-24T05:55:16.024Z,71.44
2018-07-24T05:56:16.028Z,71.44
2018-07-24T05:57:16.031Z,70.80
2018-07-24T05:58:16.034Z,70.96
2018-07-24T05:59:16.048Z,71.19
2018-07-24T06:00:16.042Z,70.90
2018-07-24T06:01:16.044Z,70.94
2018-07-24T06:02:16.058Z,69.62
2018-07-24T06:03:16.052Z,68.55
2018-07-24T06:04:16.056Z,68.10
2018-07-24T06:05:16.061Z,66.75
2018-07-24T06:06:16.063Z,65.82
2018-07-24T06:07:16.123Z,64.98
2018-07-24T06:08:16.073Z,64.89
2018-07-24T06:09:16.073Z,65.05
2018-07-24T06:10:16.077Z,65.11
2018-07-24T06:11:16.081Z,66.36
2018-07-24T06:12:16.086Z,66.75
2018-07-24T06:13:16.129Z,66.75
2018-07-24T06:14:16.096Z,66.56
2018-07-24T06:15:16.099Z,66.66
2018-07-24T06:16:16.115Z,66.75
2018-07-24T06:17:16.123Z,66.91
2018-07-24T06:18:16.110Z,67.49
2018-07-24T06:19:16.112Z,67.43
2018-07-24T06:20:16.122Z,67.52
2018-07-24T06:21:16.122Z,66.75
2018-07-24T06:22:16.125Z,66.85
2018-07-24T06:23:16.128Z,66.66
2018-07-24T06:24:16.134Z,66.75
2018-07-24T06:25:16.145Z,66.75
2018-07-24T06:26:16.140Z,66.66
2018-07-24T06:27:16.148Z,67.14
2018-07-24T06:28:16.151Z,67.43
2018-07-24T06:29:16.198Z,67.43
2018-07-24T06:30:16.158Z,66.85
2018-07-24T06:31:16.163Z,66.85
2018-07-24T06:32:16.165Z,66.56
2018-07-24T06:33:16.169Z,67.72
2018-07-24T06:34:16.173Z,66.66
2018-07-24T06:35:16.179Z,67.14
2018-07-24T06:36:16.183Z,67.04
2018-07-24T06:37:16.185Z,66.56
2018-07-24T06:38:16.189Z,66.75
2018-07-24T06:39:16.251Z,67.43
2018-07-24T06:40:16.198Z,67.24
2018-07-24T06:41:16.200Z,67.43
2018-07-24T06:42:16.206Z,67.24
2018-07-24T06:43:16.210Z,67.14
2018-07-24T06:44:16.245Z,67.82
2018-07-24T06:45:16.216Z,67.62
2018-07-24T06:46:16.222Z,68.01
2018-07-24T06:47:16.225Z,67.62
2018-07-24T06:48:16.235Z,67.62
2018-07-24T06:49:16.236Z,67.24
2018-07-24T06:50:16.241Z,67.33
2018-07-24T06:51:16.303Z,67.33
2018-07-24T06:52:16.251Z,67.14
2018-07-24T06:53:16.250Z,67.33
2018-07-24T06:54:16.266Z,67.36
2018-07-24T06:55:16.294Z,66.69
2018-07-24T06:56:16.262Z,66.50
2018-07-24T06:57:16.277Z,67.14
2018-07-24T06:58:16.271Z,67.04
2018-07-24T06:59:16.274Z,66.56
2018-07-24T07:00:16.292Z,67.43
2018-07-24T07:01:16.285Z,67.14
2018-07-24T07:02:16.349Z,67.43
2018-07-24T07:03:16.329Z,67.33
2018-07-24T07:04:16.305Z,67.33
2018-07-24T07:05:16.344Z,67.72
2018-07-24T07:06:16.304Z,68.10
2018-07-24T07:07:16.307Z,67.72
2018-07-24T07:08:16.311Z,67.52
2018-07-24T07:09:16.317Z,67.52
2018-07-24T07:10:16.412Z,67.24
2018-07-24T07:11:16.324Z,67.04
2018-07-24T07:12:16.328Z,67.62
2018-07-24T07:13:16.400Z,67.24
2018-07-24T07:14:16.339Z,66.56
2018-07-24T07:15:16.344Z,66.08
2018-07-24T07:16:16.390Z,66.46
2018-07-24T07:17:16.375Z,66.36
2018-07-24T07:18:16.354Z,66.85
2018-07-24T07:19:16.403Z,67.52
2018-07-24T07:20:16.358Z,66.75
2018-07-24T07:21:16.362Z,66.75
2018-07-24T07:22:16.365Z,66.46
2018-07-24T07:23:16.401Z,66.56
2018-07-24T07:24:16.378Z,66.56
2018-07-24T07:25:16.396Z,65.98
2018-07-24T07:26:16.456Z,65.88
2018-07-24T07:27:16.400Z,65.88
2018-07-24T07:28:16.397Z,65.40
2018-07-24T07:29:16.422Z,65.11
2018-07-24T07:30:16.411Z,64.92
2018-07-24T07:31:16.408Z,64.76
2018-07-24T07:32:16.452Z,65.01
2018-07-24T07:33:16.425Z,65.05
2018-07-24T07:34:16.415Z,64.56
2018-07-24T07:35:16.422Z,64.47
2018-07-24T07:36:16.421Z,64.08
2018-07-24T07:37:16.431Z,64.37
2018-07-24T07:38:16.429Z,64.08
2018-07-24T07:39:16.475Z,63.79
2018-07-24T07:40:16.438Z,63.11
2018-07-24T07:41:16.443Z,62.34
2018-07-24T07:42:16.446Z,62.53
2018-07-24T07:43:16.452Z,62.63
2018-07-24T07:44:16.461Z,63.31
2018-07-24T07:45:16.461Z,63.11
2018-07-24T07:46:16.462Z,63.02
2018-07-24T07:47:16.467Z,62.44
2018-07-24T07:48:16.471Z,62.44
2018-07-24T07:49:16.474Z,62.85
2018-07-24T07:50:16.478Z,63.05
2018-07-24T07:51:16.489Z,63.05
2018-07-24T07:52:16.487Z,62.85
2018-07-24T07:53:16.491Z,61.98
2018-07-24T07:54:16.502Z,62.08
2018-07-24T07:55:16.501Z,62.18
2018-07-24T07:56:16.507Z,61.21
2018-07-24T07:57:16.514Z,62.27
2018-07-24T07:58:16.523Z,60.82
2018-07-24T07:59:16.517Z,61.30
2018-07-24T08:00:16.522Z,60.72
2018-07-24T08:01:16.524Z,60.82
2018-07-24T08:02:16.529Z,60.72
2018-07-24T08:03:16.536Z,60.05
2018-07-24T08:04:16.589Z,60.34
2018-07-24T08:05:16.552Z,60.08
2018-07-24T08:06:16.548Z,60.17
2018-07-24T08:07:16.550Z,59.69
2018-07-24T08:08:16.650Z,59.98
2018-07-24T08:09:16.564Z,60.27
2018-07-24T08:10:16.570Z,59.31
2018-07-24T08:11:16.567Z,59.59
2018-07-24T08:12:16.625Z,59.59
2018-07-24T08:13:16.574Z,59.31
2018-07-24T08:14:16.647Z,59.21
2018-07-24T08:15:16.588Z,59.21
2018-07-24T08:16:16.589Z,59.50
2018-07-24T08:17:16.597Z,59.21
2018-07-24T08:18:16.598Z,59.14
2018-07-24T08:19:16.632Z,59.21
2018-07-24T08:20:16.607Z,59.59
2018-07-24T08:21:16.620Z,59.11
2018-07-24T08:22:16.652Z,59.05
2018-07-24T08:23:16.621Z,59.05
2018-07-24T08:24:16.624Z,58.75
2018-07-24T08:25:16.626Z,58.85
2018-07-24T08:26:16.631Z,58.17
2018-07-24T08:27:16.635Z,57.98
2018-07-24T08:28:16.752Z,57.04
2018-07-24T08:29:16.648Z,57.04
2018-07-24T08:30:16.649Z,57.33
2018-07-24T08:31:16.654Z,56.94
2018-07-24T08:32:16.661Z,57.43
2018-07-24T08:33:16.663Z,56.07
2018-07-24T08:34:16.668Z,55.98
2018-07-24T08:35:16.671Z,55.68
2018-07-24T08:36:16.676Z,55.32
2018-07-24T08:37:16.680Z,55.58
2018-07-24T08:38:16.752Z,55.71
2018-07-24T08:39:16.688Z,55.42
2018-07-24T08:40:16.694Z,55.71
2018-07-24T08:41:16.701Z,55.32
2018-07-24T08:42:16.704Z,55.22
2018-07-24T08:43:16.708Z,55.42
2018-07-24T08:44:16.712Z,55.32
2018-07-24T08:45:16.719Z,55.52
2018-07-24T08:46:16.723Z,55.22
2018-07-24T08:47:16.724Z,55.26
2018-07-24T08:48:16.736Z,54.48
2018-07-24T08:49:16.841Z,52.91
2018-07-24T08:50:16.778Z,50.85
2018-07-24T08:51:16.795Z,48.22
2018-07-24T08:52:16.754Z,44.68
2018-07-24T08:53:17.013Z,42.19
2018-07-24T08:54:16.975Z,40.09
2018-07-24T08:55:17.053Z,38.76
2018-07-24T08:56:16.782Z,37.13
2018-07-24T08:57:16.785Z,36.29
2018-07-24T08:58:16.787Z,35.24
2018-07-24T08:59:16.791Z,33.91
2018-07-24T09:00:16.799Z,32.56
2018-07-24T09:01:16.805Z,31.00
2018-07-24T09:02:16.811Z,30.71
2018-07-24T09:03:16.879Z,30.52
2018-07-24T09:04:16.893Z,29.65
2018-07-24T09:05:16.835Z,29.37
2018-07-24T09:06:16.843Z,28.59
2018-07-24T09:07:16.857Z,28.10
2018-07-24T09:08:16.957Z,28.30
2018-07-24T09:09:16.868Z,27.82
2018-07-24T09:10:16.932Z,27.14
2018-07-24T09:11:17.074Z,27.15
2018-07-24T09:12:16.901Z,27.07
2018-07-24T09:13:16.903Z,26.29
2018-07-24T09:14:16.917Z,25.51
2018-07-24T09:15:16.926Z,25.13
2018-07-24T09:16:16.934Z,24.44
2018-07-24T09:17:16.943Z,24.05
2018-07-24T09:18:16.953Z,23.18
2018-07-24T09:19:16.965Z,23.00
2018-07-24T09:20:17.006Z,22.33
2018-07-24T09:21:16.996Z,21.83
2018-07-24T09:22:16.995Z,22.03
2018-07-24T09:23:17.006Z,21.74
2018-07-24T09:24:17.031Z,21.46
2018-07-24T09:25:17.029Z,20.68
2018-07-24T09:26:17.042Z,20.47
2018-07-24T09:27:17.054Z,20.37
2018-07-24T09:28:17.065Z,20.47
2018-07-24T09:29:17.076Z,20.68
2018-07-24T09:30:17.089Z,20.48
2018-07-24T09:31:17.122Z,19.90
2018-07-24T09:32:17.116Z,19.50
2018-07-24T09:33:17.127Z,19.90
2018-07-24T09:34:17.141Z,19.12
2018-07-24T09:35:17.152Z,19.41
2018-07-24T09:36:17.165Z,19.01
2018-07-24T09:37:17.178Z,19.03
2018-07-24T09:38:17.267Z,18.73
2018-07-24T09:39:17.204Z,18.34
2018-07-24T09:40:17.223Z,18.25
2018-07-24T09:41:17.232Z,17.36
2018-07-24T09:42:17.246Z,17.37
2018-07-24T09:43:17.258Z,17.98
2018-07-24T09:44:17.274Z,17.19
2018-07-24T09:45:17.303Z,16.69
2018-07-24T09:46:17.303Z,16.58
2018-07-24T09:47:17.317Z,17.27
2018-07-24T09:48:17.339Z,17.26
2018-07-24T09:49:17.346Z,17.66
2018-07-24T09:50:17.362Z,17.76
2018-07-24T09:51:17.377Z,17.46
2018-07-24T09:52:17.393Z,17.55
2018-07-24T09:53:17.414Z,17.26
2018-07-24T09:54:17.430Z,17.26
2018-07-24T09:55:17.436Z,16.67
2018-07-24T09:56:17.457Z,16.88
2018-07-24T09:57:17.467Z,15.89
2018-07-24T09:58:17.487Z,15.80
2018-07-24T09:59:17.517Z,15.70
2018-07-24T10:00:17.516Z,15.59
2018-07-24T10:01:17.550Z,15.80
2018-07-24T10:02:17.548Z,15.31
2018-07-24T10:03:17.579Z,15.70
2018-07-24T10:04:17.621Z,16.00
2018-07-24T10:05:17.650Z,15.79
2018-07-24T10:06:17.612Z,17.07
2018-07-24T10:07:17.627Z,17.62
2018-07-24T10:08:17.652Z,18.59
2018-07-24T10:09:17.660Z,19.17
2018-07-24T10:10:17.674Z,19.56
2018-07-24T10:11:17.714Z,20.54
2018-07-24T10:12:17.750Z,20.53
2018-07-24T10:13:17.839Z,21.78
2018-07-24T10:14:17.786Z,21.37
2018-07-24T10:15:17.758Z,22.45
2018-07-24T10:16:17.765Z,23.52
2018-07-24T10:17:17.780Z,23.03
2018-07-24T10:18:17.793Z,23.32
2018-07-24T10:19:17.808Z,23.91
2018-07-24T10:20:17.820Z,24.29
2018-07-24T10:21:17.833Z,24.67
2018-07-24T10:22:17.924Z,25.34
2018-07-24T10:23:17.856Z,26.50
2018-07-24T10:24:17.883Z,27.26
2018-07-24T10:25:17.879Z,28.13
2018-07-24T10:26:17.894Z,28.81
2018-07-24T10:27:17.908Z,28.41
2018-07-24T10:28:17.914Z,28.13
2018-07-24T10:29:17.926Z,26.89
2018-07-24T10:30:18.059Z,25.26
2018-07-24T10:31:17.949Z,24.11
2018-07-24T10:32:17.962Z,22.96
2018-07-24T10:33:17.972Z,21.41
2018-07-24T10:34:17.980Z,20.64
2018-07-24T10:35:17.992Z,20.45
2018-07-24T10:36:18.006Z,19.77
2018-07-24T10:37:18.023Z,19.10
2018-07-24T10:38:18.040Z,18.60
2018-07-24T10:39:18.044Z,18.31
2018-07-24T10:40:18.671Z,18.60
2018-07-24T10:41:18.074Z,18.77
2018-07-24T10:42:18.092Z,18.98
2018-07-24T10:43:18.100Z,18.60
2018-07-24T10:44:18.115Z,18.51
2018-07-24T10:45:18.132Z,17.72
2018-07-24T10:46:18.142Z,16.94
2018-07-24T10:47:18.161Z,16.65
2018-07-24T10:48:18.185Z,16.55
2018-07-24T10:49:18.229Z,17.34
2018-07-24T10:50:18.206Z,17.53
2018-07-24T10:51:18.220Z,17.23
2018-07-24T10:52:18.236Z,17.74
2018-07-24T10:53:18.252Z,17.34
2018-07-24T10:54:18.266Z,16.74
2018-07-24T10:55:18.283Z,17.05
2018-07-24T10:56:18.299Z,15.67
2018-07-24T10:57:18.316Z,15.77
2018-07-24T10:58:18.330Z,15.67
2018-07-24T10:59:18.349Z,15.29
2018-07-24T11:00:18.366Z,14.89
2018-07-24T11:01:18.386Z,14.79
2018-07-24T11:02:18.405Z,15.00
2018-07-24T11:03:18.414Z,14.29
2018-07-24T11:04:18.431Z,13.91
2018-07-24T11:05:18.478Z,14.41
2018-07-24T11:06:18.470Z,14.89
2018-07-24T11:07:18.484Z,14.68
2018-07-24T11:08:18.594Z,14.39
2018-07-24T11:09:18.519Z,14.50
2018-07-24T11:10:18.547Z,14.70
2018-07-24T11:11:18.553Z,14.11
2018-07-24T11:12:18.576Z,14.11
2018-07-24T11:13:18.588Z,13.42
2018-07-24T11:14:18.606Z,13.92
2018-07-24T11:15:18.625Z,14.11
2018-07-24T11:16:18.680Z,14.19
2018-07-24T11:17:18.661Z,14.87
2018-07-24T11:18:18.683Z,15.66
2018-07-24T11:19:18.697Z,15.56
2018-07-24T11:20:18.717Z,15.86
2018-07-24T11:21:18.745Z,16.06
2018-07-24T11:22:18.842Z,15.66
2018-07-24T11:23:18.858Z,15.65
2018-07-24T11:24:18.790Z,15.94
2018-07-24T11:25:18.804Z,15.65
2018-07-24T11:26:18.823Z,15.66
2018-07-24T11:27:18.846Z,14.97
2018-07-24T11:28:18.900Z,14.37
2018-07-24T11:29:18.881Z,14.18
2018-07-24T11:30:18.893Z,14.39
2018-07-24T11:31:18.979Z,14.58
2018-07-24T11:32:19.099Z,14.68
2018-07-24T11:33:18.983Z,14.28
2018-07-24T11:34:18.972Z,14.87
2018-07-24T11:35:18.981Z,14.87
2018-07-24T11:36:19.085Z,14.69
2018-07-24T11:37:19.017Z,13.60
2018-07-24T11:38:19.037Z,13.62
2018-07-24T11:39:19.055Z,13.23
2018-07-24T11:40:19.072Z,12.94
2018-07-24T11:41:19.090Z,12.55
2018-07-24T11:42:19.109Z,11.55
2018-07-24T11:43:19.127Z,11.85
2018-07-24T11:44:19.147Z,11.74
2018-07-24T11:45:19.165Z,12.52
2018-07-24T11:46:19.184Z,12.23
2018-07-24T11:47:19.203Z,12.32
2018-07-24T11:48:19.248Z,13.21
2018-07-24T11:49:19.252Z,13.69
2018-07-24T11:50:19.267Z,13.59
2018-07-24T11:51:19.279Z,13.20
2018-07-24T11:52:19.299Z,13.60
2018-07-24T11:53:19.316Z,13.80
2018-07-24T11:54:19.335Z,13.61
2018-07-24T11:55:19.409Z,13.89
2018-07-24T11:56:19.379Z,14.29
2018-07-24T11:57:19.407Z,13.69
2018-07-24T11:58:19.411Z,13.78
2018-07-24T11:59:19.427Z,13.49
2018-07-24T12:00:19.446Z,12.90
2018-07-24T12:01:19.463Z,13.00
2018-07-24T12:02:19.489Z,12.92
2018-07-24T12:03:19.504Z,12.13
2018-07-24T12:04:19.523Z,12.23
2018-07-24T12:05:19.547Z,12.13
2018-07-24T12:06:19.560Z,11.54
2018-07-24T12:07:19.579Z,11.24
2018-07-24T12:08:19.597Z,11.04
2018-07-24T12:09:19.614Z,10.75
2018-07-24T12:10:19.634Z,10.25
2018-07-24T12:11:19.657Z,9.96
2018-07-24T12:12:19.674Z,9.76
2018-07-24T12:13:19.702Z,9.56
2018-07-24T12:14:19.717Z,9.86
2018-07-24T12:15:19.735Z,9.95
2018-07-24T12:16:19.757Z,10.64
2018-07-24T12:17:19.777Z,11.34
2018-07-24T12:18:19.943Z,12.02
2018-07-24T12:19:19.825Z,11.82
2018-07-24T12:20:19.834Z,12.23
2018-07-24T12:21:19.853Z,11.93
2018-07-24T12:22:19.872Z,11.94
2018-07-24T12:23:19.892Z,11.44
2018-07-24T12:24:19.915Z,11.15
2018-07-24T12:25:19.932Z,11.14
2018-07-24T12:26:19.952Z,11.72
2018-07-24T12:27:19.975Z,12.82
2018-07-24T12:28:19.989Z,12.90
2018-07-24T12:29:20.011Z,13.68
2018-07-24T12:30:20.029Z,13.39
2018-07-24T12:31:20.077Z,13.38
2018-07-24T12:32:20.120Z,13.48
2018-07-24T12:33:20.179Z,13.38
2018-07-24T12:34:20.121Z,13.18
2018-07-24T12:35:20.121Z,13.18
2018-07-24T12:36:20.156Z,12.79
2018-07-24T12:37:20.166Z,13.10
2018-07-24T12:38:20.182Z,13.00
2018-07-24T12:39:20.194Z,12.60
2018-07-24T12:40:20.214Z,13.00
2018-07-24T12:41:20.238Z,12.90
2018-07-24T12:42:20.249Z,13.30
2018-07-24T12:43:20.267Z,13.19
2018-07-24T12:44:20.285Z,13.38
2018-07-24T12:45:20.302Z,13.87
2018-07-24T12:46:20.320Z,14.36
2018-07-24T12:47:20.339Z,13.96
2018-07-24T12:48:20.356Z,14.65
2018-07-24T12:49:20.382Z,14.65
2018-07-24T12:50:20.392Z,14.46
2018-07-24T12:51:20.408Z,13.68
2018-07-24T12:52:20.508Z,13.68